Mora, MN

10:58 AM CDT on May 24, 2017 (GMT -0500)
Mora Municipal

Weather History for KJMR - August, 2013

Change the Weather History Date:

Sunday, August 18, 2013

  Actual Average Record
Temperature  
Mean Temperature 64 °F -  
Max Temperature 78 °F 80 °F 100 °F (1976)
Min Temperature 50 °F 52 °F 37 °F (1977)
Degree Days  
Heating Degree Days 1    
Growing Degree Days 14 (Base 50)    
Moisture  
Dew Point 52 °F    
Average Humidity 62    
Maximum Humidity 100    
Minimum Humidity 34    
Precipitation  
Precipitation 0.00 in - - ()
Sea Level Pressure  
Sea Level Pressure 30.09 in    
Wind  
Wind Speed 3 mph (SSW)    
Max Wind Speed 18 mph    
Max Gust Speed 24 mph    
Visibility 10 miles    
Events      
Averages and records for this station are not official NWS values.
T = Trace of Precipitation, MM = Missing Value Source: NWS Daily Summary

Daily Weather History Graph

Daily Weather History Graph

Search for Another Location

Airport or City:

Trip Planner

Search our weather history database for the weather conditions in past years. The results will help you decide how hot, cold, wet, or windy it might be!

Date:

Astronomy

Aug. 18, 2013 Rise Set
Actual Time 6:16 AM CDT 8:15 PM CDT
Civil Twilight 5:44 AM CDT 8:47 PM CDT
Nautical Twilight 5:05 AM CDT 9:27 PM CDT
Astronomical Twilight 4:21 AM CDT 10:10 PM CDT
Moon 6:25 PM CDT (8/18) 3:22 AM CDT (8/18)
Length of Visible Light 15h 03m
Length of Day
13h 59m
Waxing Gibbous, 92% of the Moon is Illuminated
Aug 18
Waxing Gibbous
Aug 20
Full
Aug 28
Last Quarter
Sep 5
New
Sep 12
First Quarter

Hourly Weather History & Observations

Time (CDT) Temp. Dew Point Humidity Pressure Visibility Wind Dir Wind Speed Gust Speed Precip Events Conditions
12:15 AM 60.8 °F 51.8 °F 72% 30.12 in 10.0 mi Calm Calm - N/A   Clear
12:34 AM 60.8 °F 51.8 °F 72% 30.13 in 10.0 mi Calm Calm - N/A   Clear
12:54 AM 60.8 °F 51.8 °F 72% 30.13 in 10.0 mi Calm Calm - N/A   Clear
1:14 AM 60.8 °F 51.8 °F 72% 30.13 in 10.0 mi Calm Calm - N/A   Clear
1:34 AM 59.0 °F 51.8 °F 77% 30.13 in 10.0 mi Calm Calm - N/A   Clear
1:54 AM 59.0 °F 51.8 °F 77% 30.13 in 10.0 mi Calm Calm - N/A   Clear
2:14 AM 59.0 °F 51.8 °F 77% 30.13 in 10.0 mi Calm Calm - N/A   Clear
2:34 AM 57.2 °F 50.0 °F 77% 30.13 in 10.0 mi Calm Calm - N/A   Clear
2:54 AM 55.4 °F 50.0 °F 82% 30.13 in 10.0 mi Calm Calm - N/A   Clear
3:14 AM 53.6 °F 48.2 °F 82% 30.13 in 10.0 mi Calm Calm - N/A   Clear
3:34 AM 53.6 °F 50.0 °F 88% 30.14 in 10.0 mi Calm Calm - N/A   Clear
3:54 AM 50.0 °F 46.4 °F 87% 30.14 in 10.0 mi Calm Calm - N/A   Clear
4:12 AM 50.0 °F 48.2 °F 94% 30.14 in 7.0 mi Calm Calm - N/A   Clear
4:34 AM 50.0 °F 48.2 °F 94% 30.13 in 10.0 mi Calm Calm - N/A   Clear
4:55 AM 51.8 °F 50.0 °F 94% 30.13 in 10.0 mi Calm Calm - N/A   Clear
5:14 AM 50.0 °F 48.2 °F 94% 30.13 in 7.0 mi Calm Calm - N/A   Clear
5:34 AM 51.8 °F 50.0 °F 94% 30.13 in 7.0 mi Calm Calm - N/A   Clear
5:54 AM 50.0 °F 50.0 °F 100% 30.13 in 3.0 mi Calm Calm - N/A   Clear
6:14 AM 50.0 °F 50.0 °F 100% 30.13 in 7.0 mi Calm Calm - N/A   Clear
6:34 AM 50.0 °F 50.0 °F 100% 30.14 in 2.5 mi Calm Calm - N/A   Clear
6:54 AM 50.0 °F 50.0 °F 100% 30.14 in 3.0 mi Calm Calm - N/A   Clear
7:14 AM 51.8 °F 50.0 °F 94% 30.14 in 7.0 mi Calm Calm - N/A   Clear
7:34 AM 53.6 °F 51.8 °F 94% 30.15 in 10.0 mi Calm Calm - N/A   Clear
7:54 AM 55.4 °F 53.6 °F 94% 30.15 in 10.0 mi Calm Calm - N/A   Clear
8:14 AM 60.8 °F 53.6 °F 77% 30.15 in 10.0 mi Calm Calm - N/A   Clear
8:34 AM 62.6 °F 55.4 °F 77% 30.15 in 10.0 mi Calm Calm - N/A   Clear
8:54 AM 64.4 °F 55.4 °F 73% 30.15 in 10.0 mi Calm Calm - N/A   Clear
9:14 AM 66.2 °F 53.6 °F 64% 30.14 in 10.0 mi Calm Calm - N/A   Clear
9:34 AM 68.0 °F 53.6 °F 60% 30.14 in 10.0 mi Calm Calm - N/A   Clear
9:55 AM 69.8 °F 55.4 °F 60% 30.14 in 10.0 mi Calm Calm - N/A   Clear
10:14 AM 71.6 °F 53.6 °F 53% 30.13 in 10.0 mi SSW 12.7 mph - N/A   Clear
10:34 AM 73.4 °F 53.6 °F 50% 30.12 in 10.0 mi SSW 10.4 mph - N/A   Clear
10:55 AM 75.2 °F 53.6 °F 47% 30.12 in 10.0 mi SW 13.8 mph - N/A   Clear
11:14 AM 73.4 °F 53.6 °F 50% 30.11 in 10.0 mi SSW 15.0 mph - N/A   Clear
11:34 AM 75.2 °F 53.6 °F 47% 30.11 in 10.0 mi SSW 13.8 mph 17.3 mph N/A   Clear
11:55 AM 77.0 °F 51.8 °F 41% 30.10 in 10.0 mi SW 12.7 mph - N/A   Clear
12:14 PM 77.0 °F 51.8 °F 41% 30.09 in 10.0 mi South 17.3 mph 24.2 mph N/A   Clear
12:34 PM 77.0 °F 51.8 °F 41% 30.08 in 10.0 mi South 17.3 mph 20.7 mph N/A   Clear
12:55 PM 78.8 °F 50.0 °F 36% 30.07 in 10.0 mi South 16.1 mph 23.0 mph N/A   Clear
1:14 PM 78.8 °F 50.0 °F 36% 30.07 in 10.0 mi SSW 18.4 mph 23.0 mph N/A   Clear
1:34 PM 77.0 °F 50.0 °F 39% 30.07 in 10.0 mi South 15.0 mph 23.0 mph N/A   Clear
1:54 PM 78.8 °F 50.0 °F 36% 30.08 in 10.0 mi SSW 13.8 mph 20.7 mph N/A   Clear
2:14 PM 78.8 °F 50.0 °F 36% 30.08 in 10.0 mi SSW 13.8 mph 19.6 mph N/A   Clear
2:34 PM 78.8 °F 50.0 °F 36% 30.08 in 10.0 mi SSW 13.8 mph 20.7 mph N/A   Clear
2:54 PM 78.8 °F 50.0 °F 36% 30.08 in 10.0 mi SSW 15.0 mph 20.7 mph N/A   Clear
3:14 PM 78.8 °F 50.0 °F 36% 30.08 in 10.0 mi SSW 15.0 mph 19.6 mph N/A   Clear
3:34 PM 78.8 °F 50.0 °F 36% 30.07 in 10.0 mi SSW 13.8 mph 20.7 mph N/A   Clear
3:54 PM 78.8 °F 48.2 °F 34% 30.06 in 10.0 mi SW 17.3 mph 21.9 mph N/A   Clear
4:14 PM 78.8 °F 48.2 °F 34% 30.06 in 10.0 mi SSW 15.0 mph 23.0 mph N/A   Clear
4:34 PM 78.8 °F 50.0 °F 36% 30.05 in 10.0 mi SW 15.0 mph 19.6 mph N/A   Clear
4:54 PM 78.8 °F 50.0 °F 36% 30.05 in 10.0 mi SW 9.2 mph - N/A   Clear
5:14 PM 78.8 °F 50.0 °F 36% 30.04 in 10.0 mi SSW 17.3 mph 24.2 mph N/A   Clear
5:34 PM 78.8 °F 50.0 °F 36% 30.04 in 10.0 mi SSW 15.0 mph 20.7 mph N/A   Clear
5:54 PM 77.0 °F 50.0 °F 39% 30.04 in 10.0 mi SSW 12.7 mph 18.4 mph N/A   Clear
6:14 PM 75.2 °F 51.8 °F 44% 30.04 in 10.0 mi SSW 10.4 mph - N/A   Clear
6:34 PM 75.2 °F 51.8 °F 44% 30.03 in 10.0 mi SSW 9.2 mph - N/A   Clear
6:54 PM 73.4 °F 51.8 °F 47% 30.02 in 10.0 mi Calm Calm - N/A   Clear
7:14 PM 73.4 °F 53.6 °F 50% 30.02 in 10.0 mi South 6.9 mph - N/A   Clear
7:34 PM 71.6 °F 53.6 °F 53% 30.02 in 10.0 mi South 5.8 mph - N/A   Clear
7:54 PM 69.8 °F 53.6 °F 56% 30.01 in 10.0 mi Calm Calm - N/A   Clear
8:14 PM 69.8 °F 55.4 °F 60% 30.00 in 10.0 mi Calm Calm - N/A   Clear
8:34 PM 69.8 °F 55.4 °F 60% 30.00 in 10.0 mi Calm Calm - N/A   Clear
8:54 PM 69.8 °F 55.4 °F 60% 30.00 in 10.0 mi Calm Calm - N/A   Clear
9:14 PM 69.8 °F 55.4 °F 60% 30.01 in 10.0 mi Calm Calm - N/A   Clear
9:34 PM 68.0 °F 53.6 °F 60% 30.02 in 10.0 mi Calm Calm - N/A   Clear
9:54 PM 68.0 °F 55.4 °F 64% 30.02 in 10.0 mi Calm Calm - N/A   Mostly Cloudy
10:14 PM 69.8 °F 55.4 °F 60% 30.03 in 10.0 mi Calm Calm - N/A   Overcast
10:34 PM 69.8 °F 55.4 °F 60% 30.03 in 10.0 mi Calm Calm - N/A   Overcast
10:54 PM 68.0 °F 55.4 °F 64% 30.03 in 10.0 mi Calm Calm - N/A   Overcast
11:14 PM 68.0 °F 55.4 °F 64% 30.02 in 10.0 mi Calm Calm - N/A   Overcast
11:34 PM 68.0 °F 55.4 °F 64% 30.02 in 10.0 mi Calm Calm - N/A   Overcast
11:54 PM 68.0 °F 55.4 °F 64% 30.02 in 10.0 mi Calm Calm - N/A   Overcast